createdAt,value
2023-05-08T00:00:08.751Z,9.56
2023-05-08T00:01:08.729Z,9.57
2023-05-08T00:02:08.742Z,9.57
2023-05-08T00:03:08.805Z,9.60
2023-05-08T00:04:08.817Z,9.61
2023-05-08T00:05:08.755Z,9.58
2023-05-08T00:06:08.696Z,9.57
2023-05-08T00:07:08.685Z,9.57
2023-05-08T00:08:08.652Z,9.56
2023-05-08T00:09:08.651Z,9.56
2023-05-08T00:10:08.637Z,9.58
2023-05-08T00:11:08.647Z,9.56
2023-05-08T00:12:08.623Z,9.56
2023-05-08T00:13:08.690Z,9.52
2023-05-08T00:14:08.599Z,9.52
2023-05-08T00:15:08.578Z,9.50
2023-05-08T00:16:08.627Z,9.48
2023-05-08T00:17:08.636Z,9.46
2023-05-08T00:18:08.546Z,9.46
2023-05-08T00:19:08.536Z,9.48
2023-05-08T00:20:08.558Z,9.48
2023-05-08T00:21:08.528Z,9.45
2023-05-08T00:22:08.510Z,9.46
2023-05-08T00:23:08.482Z,9.45
2023-05-08T00:24:08.497Z,9.46
2023-05-08T00:25:08.501Z,9.45
2023-05-08T00:26:08.458Z,9.40
2023-05-08T00:27:08.447Z,9.39
2023-05-08T00:28:08.442Z,9.40
2023-05-08T00:29:08.434Z,9.39
2023-05-08T00:30:08.460Z,9.39
2023-05-08T00:31:08.408Z,9.35
2023-05-08T00:32:08.413Z,9.35
2023-05-08T00:33:08.483Z,9.35
2023-05-08T00:34:08.402Z,9.39
2023-05-08T00:35:08.408Z,9.38
2023-05-08T00:36:08.379Z,9.34
2023-05-08T00:37:08.337Z,9.35
2023-05-08T00:38:08.334Z,9.35
2023-05-08T00:39:08.345Z,9.34
2023-05-08T00:40:08.314Z,9.35
2023-05-08T00:41:08.289Z,9.32
2023-05-08T00:42:08.294Z,9.30
2023-05-08T00:43:08.288Z,9.27
2023-05-08T00:44:08.324Z,9.28
2023-05-08T00:45:08.235Z,9.28
2023-05-08T00:46:08.343Z,9.30
2023-05-08T00:47:08.229Z,9.32
2023-05-08T00:48:08.274Z,9.31
2023-05-08T00:49:08.242Z,9.30
2023-05-08T00:50:08.209Z,9.30
2023-05-08T00:51:08.195Z,9.28
2023-05-08T00:52:08.182Z,9.30
2023-05-08T00:53:08.163Z,9.27
2023-05-08T00:54:08.187Z,9.28
2023-05-08T00:55:08.145Z,9.27
2023-05-08T00:56:08.129Z,9.25
2023-05-08T00:57:08.126Z,9.24
2023-05-08T00:58:08.141Z,9.24
2023-05-08T00:59:08.110Z,9.23
2023-05-08T01:00:08.104Z,9.23
2023-05-08T01:01:08.135Z,9.23
2023-05-08T01:02:16.519Z,9.20
2023-05-08T01:03:08.263Z,9.20
2023-05-08T01:04:08.079Z,9.20
2023-05-08T01:05:08.089Z,9.21
2023-05-08T01:06:08.085Z,9.21
2023-05-08T01:07:08.071Z,9.20
2023-05-08T01:08:08.018Z,9.16
2023-05-08T01:09:08.071Z,9.16
2023-05-08T01:10:08.025Z,9.15
2023-05-08T01:11:08.004Z,9.13
2023-05-08T01:12:08.025Z,9.12
2023-05-08T01:13:08.098Z,9.12
2023-05-08T01:14:07.992Z,9.12
2023-05-08T01:15:07.964Z,9.12
2023-05-08T01:16:08.020Z,9.13
2023-05-08T01:17:07.921Z,9.13
2023-05-08T01:18:07.954Z,9.12
2023-05-08T01:19:07.925Z,9.13
2023-05-08T01:20:07.884Z,9.12
2023-05-08T01:21:07.901Z,9.13
2023-05-08T01:22:07.881Z,9.13
2023-05-08T01:23:07.855Z,9.13
2023-05-08T01:24:07.864Z,9.12
2023-05-08T01:25:07.897Z,9.15
2023-05-08T01:26:07.892Z,9.15
2023-05-08T01:27:07.805Z,9.13
2023-05-08T01:28:07.834Z,9.15
2023-05-08T01:29:07.822Z,9.15
2023-05-08T01:30:07.804Z,9.15
2023-05-08T01:31:07.773Z,9.13
2023-05-08T01:32:07.771Z,9.15
2023-05-08T01:33:07.805Z,9.13
2023-05-08T01:34:07.812Z,9.13
2023-05-08T01:35:07.861Z,9.12
2023-05-08T01:36:07.728Z,9.10
2023-05-08T01:37:07.715Z,9.13
2023-05-08T01:38:07.699Z,9.13
2023-05-08T01:39:07.719Z,9.16
2023-05-08T01:40:07.687Z,9.16
2023-05-08T01:41:07.685Z,9.13
2023-05-08T01:42:07.646Z,9.10
2023-05-08T01:43:07.670Z,9.09
2023-05-08T01:44:07.669Z,9.04
2023-05-08T01:45:07.639Z,9.05
2023-05-08T01:46:07.716Z,9.05
2023-05-08T01:47:07.686Z,9.06
2023-05-08T01:48:07.615Z,9.10
2023-05-08T01:49:07.636Z,9.06
2023-05-08T01:50:07.622Z,9.10
2023-05-08T01:51:07.587Z,9.12
2023-05-08T01:52:07.549Z,9.10
2023-05-08T01:53:07.553Z,9.09
2023-05-08T01:54:09.479Z,9.06
2023-05-08T01:55:07.513Z,9.09
2023-05-08T01:56:07.502Z,9.09
2023-05-08T01:57:07.486Z,9.10
2023-05-08T01:58:07.538Z,9.09
2023-05-08T01:59:07.460Z,9.04
2023-05-08T02:00:07.487Z,9.02
2023-05-08T02:01:07.525Z,9.04
2023-05-08T02:02:07.508Z,9.04
2023-05-08T02:03:07.462Z,9.04
2023-05-08T02:04:07.499Z,9.01
2023-05-08T02:05:07.417Z,8.97
2023-05-08T02:06:07.460Z,8.97
2023-05-08T02:07:07.397Z,9.01
2023-05-08T02:08:07.376Z,8.97
2023-05-08T02:09:07.374Z,8.96
2023-05-08T02:10:07.373Z,8.97
2023-05-08T02:11:07.340Z,8.93
2023-05-08T02:12:07.350Z,8.93
2023-05-08T02:13:07.369Z,8.91
2023-05-08T02:14:07.325Z,8.94
2023-05-08T02:15:07.300Z,8.96
2023-05-08T02:16:07.307Z,8.96
2023-05-08T02:17:07.412Z,8.94
2023-05-08T02:18:07.330Z,8.90
2023-05-08T02:19:07.260Z,8.91
2023-05-08T02:20:07.247Z,8.90
2023-05-08T02:21:07.294Z,8.90
2023-05-08T02:22:07.273Z,8.88
2023-05-08T02:23:07.208Z,8.88
2023-05-08T02:24:07.217Z,8.88
2023-05-08T02:25:07.194Z,8.88
2023-05-08T02:26:07.253Z,8.87
2023-05-08T02:27:07.161Z,8.87
2023-05-08T02:28:07.147Z,8.87
2023-05-08T02:29:07.154Z,8.86
2023-05-08T02:30:07.134Z,8.87
2023-05-08T02:31:07.160Z,8.86
2023-05-08T02:32:07.128Z,8.84
2023-05-08T02:33:07.157Z,8.84
2023-05-08T02:34:07.141Z,8.83
2023-05-08T02:35:07.119Z,8.83
2023-05-08T02:36:07.114Z,8.86
2023-05-08T02:37:07.062Z,8.84
2023-05-08T02:38:07.049Z,8.84
2023-05-08T02:39:07.073Z,8.86
2023-05-08T02:40:07.061Z,8.84
2023-05-08T02:41:07.010Z,8.84
2023-05-08T02:42:07.013Z,8.81
2023-05-08T02:43:06.998Z,8.83
2023-05-08T02:44:06.993Z,8.79
2023-05-08T02:45:07.007Z,8.81
2023-05-08T02:46:06.980Z,8.79
2023-05-08T02:47:07.501Z,8.76
2023-05-08T02:48:07.014Z,8.79
2023-05-08T02:49:06.947Z,8.78
2023-05-08T02:50:06.968Z,8.76
2023-05-08T02:51:06.968Z,8.76
2023-05-08T02:52:06.905Z,8.75
2023-05-08T02:53:06.884Z,8.76
2023-05-08T02:54:06.887Z,8.75
2023-05-08T02:55:06.815Z,8.75
2023-05-08T02:56:06.842Z,8.73
2023-05-08T02:57:06.847Z,8.72
2023-05-08T02:58:06.841Z,8.72
2023-05-08T02:59:06.804Z,8.72
2023-05-08T03:00:06.749Z,8.72
2023-05-08T03:01:06.839Z,8.71
2023-05-08T03:02:06.765Z,8.69
2023-05-08T03:03:06.913Z,8.69
2023-05-08T03:04:06.790Z,8.68
2023-05-08T03:05:06.754Z,8.68
2023-05-08T03:06:06.710Z,8.65
2023-05-08T03:07:06.674Z,8.65
2023-05-08T03:08:06.716Z,8.63
2023-05-08T03:09:06.725Z,8.63
2023-05-08T03:10:06.688Z,8.60
2023-05-08T03:11:06.646Z,8.57
2023-05-08T03:12:06.633Z,8.60
2023-05-08T03:13:06.704Z,8.58
2023-05-08T03:14:06.604Z,8.58
2023-05-08T03:15:06.588Z,8.58
2023-05-08T03:16:06.689Z,8.60
2023-05-08T03:17:06.649Z,8.58
2023-05-08T03:18:06.589Z,8.57
2023-05-08T03:19:06.558Z,8.55
2023-05-08T03:20:06.552Z,8.57
2023-05-08T03:21:06.532Z,8.58
2023-05-08T03:22:06.522Z,8.57
2023-05-08T03:23:06.512Z,8.58
2023-05-08T03:24:06.496Z,8.58
2023-05-08T03:25:06.495Z,8.57
2023-05-08T03:26:06.461Z,8.55
2023-05-08T03:27:06.490Z,8.54
2023-05-08T03:28:06.477Z,8.55
2023-05-08T03:29:06.458Z,8.55
2023-05-08T03:30:06.429Z,8.57
2023-05-08T03:31:06.495Z,8.58
2023-05-08T03:32:06.416Z,8.54
2023-05-08T03:33:06.425Z,8.54
2023-05-08T03:34:06.389Z,8.55
2023-05-08T03:35:06.384Z,8.53
2023-05-08T03:36:06.379Z,8.54
2023-05-08T03:37:06.341Z,8.54
2023-05-08T03:38:06.333Z,8.54
2023-05-08T03:39:06.330Z,8.54
2023-05-08T03:40:06.337Z,8.53
2023-05-08T03:41:06.475Z,8.50
2023-05-08T03:42:06.304Z,8.53
2023-05-08T03:43:06.285Z,8.48
2023-05-08T03:44:06.289Z,8.48
2023-05-08T03:45:06.288Z,8.45
2023-05-08T03:46:06.312Z,8.48
2023-05-08T03:47:06.297Z,8.47
2023-05-08T03:48:06.315Z,8.47
2023-05-08T03:49:06.232Z,8.47
2023-05-08T03:50:06.247Z,8.45
2023-05-08T03:51:06.202Z,8.47
2023-05-08T03:52:06.177Z,8.45
2023-05-08T03:53:06.172Z,8.44
2023-05-08T03:54:06.182Z,8.42
2023-05-08T03:55:06.189Z,8.45
2023-05-08T03:56:06.148Z,8.50
2023-05-08T03:57:06.180Z,8.47
2023-05-08T03:58:06.124Z,8.47
2023-05-08T03:59:06.141Z,8.50
2023-05-08T04:00:06.146Z,8.48
2023-05-08T04:01:06.115Z,8.50
2023-05-08T04:02:06.130Z,8.47
2023-05-08T04:03:06.144Z,8.48
2023-05-08T04:04:06.167Z,8.51
2023-05-08T04:05:06.058Z,8.50
2023-05-08T04:06:06.039Z,8.51
2023-05-08T04:07:06.059Z,8.51
2023-05-08T04:08:06.010Z,8.51
2023-05-08T04:09:06.058Z,8.51
2023-05-08T04:10:05.995Z,8.51
2023-05-08T04:11:06.023Z,8.50
2023-05-08T04:12:06.002Z,8.48
2023-05-08T04:13:06.139Z,8.48
2023-05-08T04:14:06.031Z,8.48
2023-05-08T04:15:05.946Z,8.50
2023-05-08T04:16:05.999Z,8.50
2023-05-08T04:17:06.215Z,8.48
2023-05-08T04:18:06.000Z,8.50
2023-05-08T04:19:05.921Z,8.50
2023-05-08T04:20:05.948Z,8.50
2023-05-08T04:21:05.874Z,8.51
2023-05-08T04:22:06.431Z,8.51
2023-05-08T04:23:05.902Z,8.48
2023-05-08T04:24:05.855Z,8.50
2023-05-08T04:25:05.844Z,8.51
2023-05-08T04:26:05.875Z,8.51
2023-05-08T04:27:05.864Z,8.50
2023-05-08T04:28:05.801Z,8.51
2023-05-08T04:29:05.816Z,8.51
2023-05-08T04:30:05.800Z,8.53
2023-05-08T04:31:05.941Z,8.53
2023-05-08T04:32:05.785Z,8.55
2023-05-08T04:33:05.820Z,8.55
2023-05-08T04:34:05.749Z,8.63
2023-05-08T04:35:05.729Z,8.71
2023-05-08T04:36:05.728Z,8.78
2023-05-08T04:37:05.743Z,8.91
2023-05-08T04:38:05.700Z,9.02
2023-05-08T04:39:05.731Z,9.12
2023-05-08T04:40:05.685Z,9.13
2023-05-08T04:41:05.755Z,9.15
2023-05-08T04:42:05.716Z,9.06
2023-05-08T04:43:05.654Z,9.04
2023-05-08T04:44:05.635Z,8.97
2023-05-08T04:45:05.686Z,8.96
2023-05-08T04:46:05.784Z,8.91
2023-05-08T04:47:05.608Z,8.86
2023-05-08T04:48:05.612Z,8.84
2023-05-08T04:49:05.600Z,8.81
2023-05-08T04:50:05.560Z,8.81
2023-05-08T04:51:05.599Z,8.78
2023-05-08T04:52:05.743Z,8.78
2023-05-08T04:53:05.720Z,8.76
2023-05-08T04:54:05.575Z,8.75
2023-05-08T04:55:05.637Z,8.76
2023-05-08T04:56:05.569Z,8.78
2023-05-08T04:57:05.515Z,8.76
2023-05-08T04:58:05.634Z,8.76
2023-05-08T04:59:05.499Z,8.73
2023-05-08T05:00:05.838Z,8.75
2023-05-08T05:01:05.497Z,8.73
2023-05-08T05:02:05.517Z,8.76
2023-05-08T05:03:05.597Z,8.75
2023-05-08T05:04:05.558Z,8.75
2023-05-08T05:05:05.463Z,8.76
2023-05-08T05:06:05.407Z,8.75
2023-05-08T05:07:05.531Z,8.73
2023-05-08T05:08:05.395Z,8.72
2023-05-08T05:09:05.401Z,8.76
2023-05-08T05:10:05.396Z,8.79
2023-05-08T05:11:05.490Z,8.76
2023-05-08T05:12:05.395Z,8.79
2023-05-08T05:13:05.717Z,8.78
2023-05-08T05:14:05.400Z,8.79
2023-05-08T05:15:05.930Z,8.81
2023-05-08T05:16:05.339Z,8.84
2023-05-08T05:17:05.324Z,8.86
2023-05-08T05:18:05.321Z,8.90
2023-05-08T05:19:05.291Z,8.94
2023-05-08T05:20:05.658Z,8.90
2023-05-08T05:21:05.266Z,8.91
2023-05-08T05:22:05.361Z,8.90
2023-05-08T05:23:05.348Z,8.88
2023-05-08T05:24:05.284Z,8.90
2023-05-08T05:25:05.228Z,8.90
2023-05-08T05:26:05.219Z,8.87
2023-05-08T05:27:05.394Z,8.87
2023-05-08T05:28:05.207Z,8.87
2023-05-08T05:29:05.251Z,8.90
2023-05-08T05:30:05.169Z,8.90
2023-05-08T05:31:05.259Z,8.91
2023-05-08T05:32:05.152Z,8.90
2023-05-08T05:33:05.453Z,8.97
2023-05-08T05:34:07.625Z,9.01
2023-05-08T05:35:08.375Z,9.06
2023-05-08T05:36:06.431Z,9.06
2023-05-08T05:37:07.118Z,9.15
2023-05-08T05:38:07.812Z,9.30
2023-05-08T05:39:06.317Z,9.53
2023-05-08T05:40:05.761Z,9.97
2023-05-08T05:41:05.092Z,10.47
2023-05-08T05:42:07.765Z,11.03
2023-05-08T05:43:05.196Z,11.03
2023-05-08T05:44:05.043Z,10.76
2023-05-08T05:45:05.008Z,10.34
2023-05-08T05:46:05.041Z,10.15
2023-05-08T05:47:05.359Z,9.97
2023-05-08T05:48:05.223Z,9.83
2023-05-08T05:49:05.012Z,9.76
2023-05-08T05:50:04.974Z,9.70
2023-05-08T05:51:05.208Z,9.63
2023-05-08T05:52:05.141Z,9.61
2023-05-08T05:53:04.957Z,9.61
2023-05-08T05:54:04.950Z,9.78
2023-05-08T05:55:04.936Z,10.03
2023-05-08T05:56:04.940Z,10.22
2023-05-08T05:57:04.922Z,10.47
2023-05-08T05:58:04.908Z,10.76
2023-05-08T05:59:04.877Z,10.92
2023-05-08T06:00:04.918Z,11.25
2023-05-08T06:01:04.876Z,11.67
2023-05-08T06:02:04.882Z,12.08
2023-05-08T06:03:04.905Z,12.56
2023-05-08T06:04:05.053Z,12.89
2023-05-08T06:05:04.876Z,13.12
2023-05-08T06:06:04.829Z,13.43
2023-05-08T06:07:04.856Z,13.91
2023-05-08T06:08:04.779Z,14.12
2023-05-08T06:09:04.811Z,14.10
2023-05-08T06:10:04.835Z,14.07
2023-05-08T06:11:04.738Z,14.13
2023-05-08T06:12:04.756Z,14.04
2023-05-08T06:13:04.855Z,14.04
2023-05-08T06:14:04.763Z,13.67
2023-05-08T06:15:04.716Z,13.58
2023-05-08T06:16:04.703Z,13.80
2023-05-08T06:17:04.768Z,13.77
2023-05-08T06:18:04.711Z,13.94
2023-05-08T06:19:04.686Z,14.34
2023-05-08T06:20:04.698Z,14.10
2023-05-08T06:21:04.646Z,14.32
2023-05-08T06:22:04.621Z,14.16
2023-05-08T06:23:04.592Z,14.09
2023-05-08T06:24:04.702Z,14.42
2023-05-08T06:25:04.561Z,14.95
2023-05-08T06:26:04.598Z,14.98
2023-05-08T06:27:04.563Z,15.01
2023-05-08T06:28:04.638Z,15.13
2023-05-08T06:29:04.623Z,14.95
2023-05-08T06:30:04.561Z,14.95
2023-05-08T06:31:04.527Z,15.21
2023-05-08T06:32:04.522Z,15.59
2023-05-08T06:33:04.572Z,15.76
2023-05-08T06:34:04.492Z,15.79
2023-05-08T06:35:04.472Z,15.57
2023-05-08T06:36:04.499Z,15.85
2023-05-08T06:37:04.454Z,16.23
2023-05-08T06:38:04.542Z,16.01
2023-05-08T06:39:04.435Z,16.11
2023-05-08T06:40:12.140Z,16.44
2023-05-08T06:41:04.405Z,17.03
2023-05-08T06:42:04.542Z,17.26
2023-05-08T06:43:04.432Z,17.04
2023-05-08T06:44:04.383Z,17.23
2023-05-08T06:45:04.397Z,17.33
2023-05-08T06:46:04.514Z,16.83
2023-05-08T06:47:04.381Z,16.35
2023-05-08T06:48:04.367Z,16.59
2023-05-08T06:49:04.371Z,17.08
2023-05-08T06:50:04.569Z,17.00
2023-05-08T06:51:05.755Z,16.86
2023-05-08T06:52:04.331Z,17.00
2023-05-08T06:53:04.294Z,16.14
2023-05-08T06:54:04.677Z,16.12
2023-05-08T06:55:04.314Z,16.65
2023-05-08T06:56:04.248Z,16.65
2023-05-08T06:57:04.268Z,16.04
2023-05-08T06:58:04.222Z,16.16
2023-05-08T06:59:08.592Z,16.67
2023-05-08T07:00:04.200Z,16.90
2023-05-08T07:01:04.217Z,17.03
2023-05-08T07:02:04.510Z,17.06
2023-05-08T07:03:11.245Z,16.78
2023-05-08T07:04:04.177Z,17.10
2023-05-08T07:05:04.297Z,17.59
2023-05-08T07:06:04.164Z,17.36
2023-05-08T07:07:04.136Z,17.50
2023-05-08T07:08:04.113Z,17.35
2023-05-08T07:09:04.128Z,17.47
2023-05-08T07:10:05.477Z,16.96
2023-05-08T07:11:04.131Z,17.03
2023-05-08T07:12:04.064Z,16.80
2023-05-08T07:13:04.102Z,16.86
2023-05-08T07:14:04.048Z,17.08
2023-05-08T07:15:17.742Z,17.62
2023-05-08T07:16:04.064Z,17.57
2023-05-08T07:17:04.010Z,17.71
2023-05-08T07:18:04.097Z,17.57
2023-05-08T07:19:04.005Z,17.25
2023-05-08T07:20:04.016Z,17.08
2023-05-08T07:21:03.969Z,17.29
2023-05-08T07:22:04.100Z,17.85
2023-05-08T07:23:03.933Z,18.40
2023-05-08T07:24:03.974Z,18.77
2023-05-08T07:25:03.948Z,19.11
2023-05-08T07:26:03.917Z,18.70
2023-05-08T07:27:03.909Z,18.54
2023-05-08T07:28:03.893Z,18.33
2023-05-08T07:29:03.911Z,18.91
2023-05-08T07:30:03.872Z,19.06
2023-05-08T07:31:03.904Z,19.53
2023-05-08T07:32:03.976Z,19.55
2023-05-08T07:33:03.886Z,19.69
2023-05-08T07:34:03.893Z,19.88
2023-05-08T07:35:03.853Z,20.02
2023-05-08T07:36:03.810Z,19.70
2023-05-08T07:37:03.801Z,19.36
2023-05-08T07:38:03.819Z,18.98
2023-05-08T07:39:03.793Z,18.72
2023-05-08T07:40:03.765Z,18.95
2023-05-08T07:41:03.768Z,18.65
2023-05-08T07:42:03.741Z,19.20
2023-05-08T07:43:03.756Z,18.83
2023-05-08T07:44:03.747Z,18.59
2023-05-08T07:45:03.713Z,18.79
2023-05-08T07:46:03.699Z,18.73
2023-05-08T07:47:03.799Z,18.57
2023-05-08T07:48:03.816Z,18.72
2023-05-08T07:49:03.691Z,18.44
2023-05-08T07:50:03.693Z,18.57
2023-05-08T07:51:03.661Z,18.62
2023-05-08T07:52:03.661Z,18.64
2023-05-08T07:53:03.689Z,18.86
2023-05-08T07:54:03.676Z,19.08
2023-05-08T07:55:03.631Z,19.36
2023-05-08T07:56:03.634Z,19.75
2023-05-08T07:57:03.586Z,20.15
2023-05-08T07:58:03.599Z,20.71
2023-05-08T07:59:03.582Z,21.13
2023-05-08T08:00:03.587Z,20.95
2023-05-08T08:01:03.618Z,20.89
2023-05-08T08:02:03.594Z,20.53
2023-05-08T08:03:03.617Z,20.33
2023-05-08T08:04:03.645Z,20.23
2023-05-08T08:05:03.527Z,20.30
2023-05-08T08:06:03.530Z,20.46
2023-05-08T08:07:03.498Z,20.90
2023-05-08T08:08:03.487Z,21.14
2023-05-08T08:09:03.477Z,21.64
2023-05-08T08:10:03.508Z,21.94
2023-05-08T08:11:04.135Z,22.19
2023-05-08T08:12:03.524Z,22.71
2023-05-08T08:13:03.458Z,23.08
2023-05-08T08:14:03.425Z,23.38
2023-05-08T08:15:03.429Z,23.67
2023-05-08T08:16:03.398Z,23.20
2023-05-08T08:17:03.452Z,23.22
2023-05-08T08:18:03.419Z,23.07
2023-05-08T08:19:03.381Z,23.39
2023-05-08T08:20:03.407Z,23.57
2023-05-08T08:21:03.358Z,22.93
2023-05-08T08:22:03.330Z,22.74
2023-05-08T08:23:03.317Z,22.97
2023-05-08T08:24:03.332Z,23.71
2023-05-08T08:25:03.310Z,24.22
2023-05-08T08:26:03.293Z,23.98
2023-05-08T08:27:03.287Z,24.20
2023-05-08T08:28:03.284Z,24.57
2023-05-08T08:29:03.289Z,24.39
2023-05-08T08:30:16.113Z,23.15
2023-05-08T08:31:03.279Z,23.34
2023-05-08T08:32:03.257Z,23.43
2023-05-08T08:33:03.260Z,23.49
2023-05-08T08:34:03.268Z,23.02
2023-05-08T08:35:03.215Z,22.99
2023-05-08T08:36:03.194Z,23.08
2023-05-08T08:37:03.207Z,22.90
2023-05-08T08:38:03.178Z,22.93
2023-05-08T08:39:03.187Z,23.04
2023-05-08T08:40:03.163Z,23.72
2023-05-08T08:41:03.156Z,23.47
2023-05-08T08:42:03.144Z,23.80
2023-05-08T08:43:03.159Z,24.47
2023-05-08T08:44:03.153Z,24.22
2023-05-08T08:45:03.107Z,24.41
2023-05-08T08:46:03.161Z,24.85
2023-05-08T08:47:03.082Z,24.63
2023-05-08T08:48:03.220Z,25.00
2023-05-08T08:49:03.086Z,24.42
2023-05-08T08:50:03.160Z,24.67
2023-05-08T08:51:03.043Z,25.20
2023-05-08T08:52:03.036Z,25.84
2023-05-08T08:53:03.131Z,25.94
2023-05-08T08:54:03.034Z,25.65
2023-05-08T08:55:03.020Z,25.80
2023-05-08T08:56:03.001Z,25.28
2023-05-08T08:57:03.035Z,24.85
2023-05-08T08:58:03.059Z,24.98
2023-05-08T08:59:02.993Z,25.20
2023-05-08T09:00:02.964Z,25.42
2023-05-08T09:01:02.950Z,25.42
2023-05-08T09:02:03.015Z,25.20
2023-05-08T09:03:03.103Z,24.90
2023-05-08T09:04:03.035Z,25.07
2023-05-08T09:05:02.919Z,25.37
2023-05-08T09:06:02.935Z,25.35
2023-05-08T09:07:02.949Z,25.97
2023-05-08T09:08:02.903Z,26.91
2023-05-08T09:09:02.898Z,27.11
2023-05-08T09:10:02.875Z,26.87
2023-05-08T09:11:02.885Z,27.05
2023-05-08T09:12:02.874Z,27.29
2023-05-08T09:13:02.904Z,27.16
2023-05-08T09:14:02.844Z,25.90
2023-05-08T09:15:02.818Z,25.67
2023-05-08T09:16:02.872Z,25.49
2023-05-08T09:17:02.808Z,24.45
2023-05-08T09:18:03.023Z,24.31
2023-05-08T09:19:04.508Z,24.75
2023-05-08T09:20:02.772Z,25.06
2023-05-08T09:21:02.802Z,25.83
2023-05-08T09:22:02.776Z,26.68
2023-05-08T09:23:02.771Z,26.64
2023-05-08T09:24:02.763Z,26.24
2023-05-08T09:25:02.750Z,25.82
2023-05-08T09:26:02.774Z,26.09
2023-05-08T09:27:02.717Z,26.43
2023-05-08T09:28:02.700Z,25.80
2023-05-08T09:29:02.710Z,25.74
2023-05-08T09:30:02.731Z,26.42
2023-05-08T09:31:02.665Z,26.80
2023-05-08T09:32:02.747Z,26.39
2023-05-08T09:33:02.751Z,25.94
2023-05-08T09:34:02.683Z,25.64
2023-05-08T09:35:02.639Z,25.91
2023-05-08T09:36:02.643Z,26.32
2023-05-08T09:37:02.665Z,26.86
2023-05-08T09:38:02.598Z,26.83
2023-05-08T09:39:02.632Z,26.91
2023-05-08T09:40:02.624Z,27.02
2023-05-08T09:41:02.610Z,26.40
2023-05-08T09:42:02.583Z,25.75
2023-05-08T09:43:02.575Z,25.39
2023-05-08T09:44:02.603Z,25.52
2023-05-08T09:45:02.569Z,25.83
2023-05-08T09:46:02.585Z,26.31
2023-05-08T09:47:02.530Z,26.79
2023-05-08T09:48:02.604Z,27.48
2023-05-08T09:49:02.542Z,26.55
2023-05-08T09:50:02.523Z,25.67
2023-05-08T09:51:02.496Z,26.05
2023-05-08T09:52:02.541Z,26.11
2023-05-08T09:53:02.551Z,26.67
2023-05-08T09:54:02.509Z,27.04
2023-05-08T09:55:02.461Z,27.46
2023-05-08T09:56:02.474Z,26.42
2023-05-08T09:57:02.523Z,26.68
2023-05-08T09:58:02.446Z,26.65
2023-05-08T09:59:02.447Z,27.01
2023-05-08T10:00:02.430Z,26.28
2023-05-08T10:01:02.507Z,26.89
2023-05-08T10:02:02.478Z,26.94
2023-05-08T10:03:02.602Z,27.41
2023-05-08T10:04:02.455Z,27.89
2023-05-08T10:05:02.423Z,27.42
2023-05-08T10:06:02.372Z,27.70
2023-05-08T10:07:02.408Z,28.13
2023-05-08T10:08:02.392Z,28.88
2023-05-08T10:09:02.346Z,28.66
2023-05-08T10:10:02.321Z,27.74
2023-05-08T10:11:02.307Z,28.32
2023-05-08T10:12:02.347Z,28.68
2023-05-08T10:13:02.333Z,28.88
2023-05-08T10:14:02.307Z,28.80
2023-05-08T10:15:02.307Z,29.06
2023-05-08T10:16:02.271Z,28.73
2023-05-08T10:17:02.348Z,28.70
2023-05-08T10:18:02.367Z,28.65
2023-05-08T10:19:02.306Z,28.47
2023-05-08T10:20:02.280Z,28.46
2023-05-08T10:21:02.266Z,27.84
2023-05-08T10:22:02.253Z,27.85
2023-05-08T10:23:02.211Z,27.92
2023-05-08T10:24:02.216Z,27.86
2023-05-08T10:25:02.226Z,27.96
2023-05-08T10:26:02.225Z,27.76
2023-05-08T10:27:07.281Z,26.09
2023-05-08T10:28:02.203Z,25.47
2023-05-08T10:29:02.194Z,25.34
2023-05-08T10:30:02.194Z,25.00
2023-05-08T10:31:02.200Z,25.43
2023-05-08T10:32:02.136Z,25.69
2023-05-08T10:33:02.329Z,25.01
2023-05-08T10:34:02.228Z,25.34
2023-05-08T10:35:02.146Z,26.17
2023-05-08T10:36:02.148Z,26.39
2023-05-08T10:37:02.097Z,27.13
2023-05-08T10:38:02.112Z,26.94
2023-05-08T10:39:02.100Z,27.80
2023-05-08T10:40:02.104Z,27.89
2023-05-08T10:41:02.072Z,27.73
2023-05-08T10:42:02.068Z,27.42
2023-05-08T10:43:02.044Z,25.80
2023-05-08T10:44:03.427Z,25.89
2023-05-08T10:45:02.059Z,26.31
2023-05-08T10:46:02.074Z,26.91
2023-05-08T10:47:02.029Z,27.57
2023-05-08T10:48:02.080Z,27.46
2023-05-08T10:49:02.027Z,26.65
2023-05-08T10:50:02.059Z,25.67
2023-05-08T10:51:01.994Z,25.27
2023-05-08T10:52:01.969Z,24.94
2023-05-08T10:53:02.111Z,25.47
2023-05-08T10:54:01.969Z,26.43
2023-05-08T10:55:01.967Z,26.95
2023-05-08T10:56:01.920Z,27.51
2023-05-08T10:57:01.912Z,27.39
2023-05-08T10:58:01.920Z,27.19
2023-05-08T10:59:01.925Z,26.58
2023-05-08T11:00:01.899Z,26.77
2023-05-08T11:01:01.897Z,27.19
2023-05-08T11:02:01.891Z,26.39
2023-05-08T11:03:01.972Z,26.58
2023-05-08T11:04:01.940Z,26.67
2023-05-08T11:05:01.843Z,27.16
2023-05-08T11:06:02.134Z,27.88
2023-05-08T11:07:01.820Z,28.90
2023-05-08T11:08:01.830Z,28.84
2023-05-08T11:09:01.818Z,28.47
2023-05-08T11:10:01.789Z,28.65
2023-05-08T11:11:01.848Z,28.72
2023-05-08T11:12:01.808Z,27.85
2023-05-08T11:13:01.854Z,27.96
2023-05-08T11:14:01.761Z,28.44
2023-05-08T11:15:01.775Z,28.31
2023-05-08T11:16:01.822Z,28.85
2023-05-08T11:17:01.764Z,28.73
2023-05-08T11:18:01.805Z,28.06
2023-05-08T11:19:01.726Z,27.64
2023-05-08T11:20:01.700Z,27.05
2023-05-08T11:21:01.686Z,26.76
2023-05-08T11:22:01.713Z,26.94
2023-05-08T11:23:01.675Z,27.33
2023-05-08T11:24:01.675Z,27.06
2023-05-08T11:25:01.652Z,26.99
2023-05-08T11:26:01.677Z,26.49
2023-05-08T11:27:01.666Z,26.72
2023-05-08T11:28:01.628Z,26.69
2023-05-08T11:29:01.627Z,26.65
2023-05-08T11:30:01.634Z,27.42
2023-05-08T11:31:01.643Z,27.17
2023-05-08T11:32:01.671Z,27.61
2023-05-08T11:33:01.692Z,27.48
2023-05-08T11:34:01.591Z,28.06
2023-05-08T11:35:01.566Z,28.21
2023-05-08T11:36:01.586Z,28.59
2023-05-08T11:37:01.575Z,28.93
2023-05-08T11:38:01.533Z,28.73
2023-05-08T11:39:01.564Z,28.35
2023-05-08T11:40:01.543Z,28.43
2023-05-08T11:41:01.557Z,28.09
2023-05-08T11:42:01.498Z,26.76
2023-05-08T11:43:01.499Z,26.42
2023-05-08T11:44:01.489Z,24.82
2023-05-08T11:45:01.499Z,24.88
2023-05-08T11:46:01.479Z,25.46
2023-05-08T11:47:01.499Z,26.25
2023-05-08T11:48:01.493Z,26.73
2023-05-08T11:49:01.534Z,27.36
2023-05-08T11:50:01.466Z,27.86
2023-05-08T11:51:01.431Z,27.86
2023-05-08T11:52:01.457Z,27.23
2023-05-08T11:53:01.411Z,26.96
2023-05-08T11:54:01.464Z,26.68
2023-05-08T11:55:01.405Z,25.97
2023-05-08T11:56:01.387Z,25.59
2023-05-08T11:57:01.389Z,25.50
2023-05-08T11:58:01.373Z,25.49
2023-05-08T11:59:01.432Z,25.32
2023-05-08T12:00:01.342Z,24.85
2023-05-08T12:01:01.408Z,24.68
2023-05-08T12:02:08.319Z,24.87
2023-05-08T12:03:01.472Z,25.19
2023-05-08T12:04:01.586Z,24.83
2023-05-08T12:05:01.366Z,24.64
2023-05-08T12:06:01.270Z,24.44
2023-05-08T12:07:01.278Z,24.22
2023-05-08T12:08:01.330Z,23.60
2023-05-08T12:09:01.277Z,23.09
2023-05-08T12:10:01.236Z,22.69
2023-05-08T12:11:01.283Z,22.39
2023-05-08T12:12:01.212Z,22.19
2023-05-08T12:13:01.268Z,21.66
2023-05-08T12:14:01.239Z,21.66
2023-05-08T12:15:01.190Z,21.78
2023-05-08T12:16:01.186Z,21.85
2023-05-08T12:17:01.199Z,21.94
2023-05-08T12:18:01.246Z,22.07
2023-05-08T12:19:01.192Z,22.19
2023-05-08T12:20:01.179Z,22.31
2023-05-08T12:21:01.313Z,22.44
2023-05-08T12:22:01.139Z,22.34
2023-05-08T12:23:01.184Z,22.44
2023-05-08T12:24:01.103Z,22.53
2023-05-08T12:25:01.106Z,22.49
2023-05-08T12:26:01.096Z,22.32
2023-05-08T12:27:01.090Z,22.43
2023-05-08T12:28:01.066Z,22.56
2023-05-08T12:29:01.077Z,22.57
2023-05-08T12:30:01.048Z,22.59
2023-05-08T12:31:01.033Z,22.69
2023-05-08T12:32:01.057Z,22.27
2023-05-08T12:33:01.058Z,22.20
2023-05-08T12:34:00.997Z,22.29
2023-05-08T12:35:01.014Z,22.35
2023-05-08T12:36:01.021Z,22.46
2023-05-08T12:37:01.000Z,22.56
2023-05-08T12:38:00.953Z,22.50
2023-05-08T12:39:00.996Z,22.35
2023-05-08T12:40:00.938Z,22.07
2023-05-08T12:41:00.956Z,22.09
2023-05-08T12:42:01.248Z,22.12
2023-05-08T12:43:00.907Z,22.28
2023-05-08T12:44:00.899Z,22.39
2023-05-08T12:45:00.886Z,22.49
2023-05-08T12:46:01.010Z,22.52
2023-05-08T12:47:01.012Z,22.27
2023-05-08T12:48:00.895Z,22.09
2023-05-08T12:49:00.840Z,21.92
2023-05-08T12:50:00.851Z,21.74
2023-05-08T12:51:00.874Z,21.60
2023-05-08T12:52:00.816Z,21.51
2023-05-08T12:53:00.873Z,21.54
2023-05-08T12:54:00.830Z,21.67
2023-05-08T12:55:00.821Z,21.88
2023-05-08T12:56:00.759Z,21.98
2023-05-08T12:57:00.772Z,22.12
2023-05-08T12:58:00.731Z,22.14
2023-05-08T12:59:00.747Z,22.04
2023-05-08T13:01:13.827Z,21.67
2023-05-08T13:02:12.749Z,21.72
2023-05-08T13:03:12.679Z,21.72
2023-05-08T13:04:12.667Z,21.71